Time;durP1;ratioP1;P1;durP2;ratioP2;P2;SDS_P1;SDS_P2;PMS_P1;PMS_P2;Temp;Humidity;BMP_temperature;BMP_pressure;BME280_temperature;BME280_humidity;BME280_pressure;Samples;Min_cycle;Max_cycle;Signal;HPM_P1;HPM_P2
2022/04/18 00:00:29;;;;;;;1.97;1.30;;;15.20;1.00;;;;;;5054288;28;20180;-80
2022/04/18 00:02:55;;;;;;;2.30;1.30;;;15.20;1.00;;;;;;5055938;28;20177;-80
2022/04/18 00:05:20;;;;;;;2.60;1.30;;;15.20;1.00;;;;;;5055708;28;20201;-81
2022/04/18 00:07:46;;;;;;;3.50;1.60;;;15.20;1.00;;;;;;5062933;28;20184;-79
2022/04/18 00:10:12;;;;;;;3.80;1.40;;;15.30;1.00;;;;;;5072527;28;20223;-80
2022/04/18 00:12:39;;;;;;;1.73;1.00;;;15.30;1.00;;;;;;5072082;28;20192;-79
2022/04/18 00:15:12;;;;;;;1.73;1.00;;;15.20;1.00;;;;;;5067549;28;20194;-79
2022/04/18 00:17:37;;;;;;;2.90;1.30;;;15.20;1.00;;;;;;5064828;28;20198;-80
2022/04/18 00:20:04;;;;;;;1.97;1.40;;;15.20;1.00;;;;;;5053066;28;20178;-80
2022/04/18 00:22:30;;;;;;;2.30;1.30;;;15.10;1.00;;;;;;5054044;28;20177;-81
2022/04/18 00:24:55;;;;;;;5.60;1.23;;;15.20;1.00;;;;;;5053042;28;20263;-80
2022/04/18 00:27:21;;;;;;;2.97;1.23;;;15.20;1.00;;;;;;5054151;28;20168;-82
2022/04/18 00:29:50;;;;;;;2.93;1.30;;;15.30;1.00;;;;;;5053041;28;20173;-81
2022/04/18 00:32:17;;;;;;;3.63;1.37;;;15.20;1.00;;;;;;5054094;28;20196;-82
2022/04/18 00:34:43;;;;;;;3.90;1.43;;;15.10;1.00;;;;;;5054576;28;20165;-81
2022/04/18 00:37:09;;;;;;;2.57;1.37;;;15.10;1.00;;;;;;5053927;28;20169;-81
2022/04/18 00:39:35;;;;;;;2.93;1.40;;;15.10;1.00;;;;;;5053968;28;20169;-82
2022/04/18 00:42:00;;;;;;;5.63;1.60;;;15.10;1.00;;;;;;5057982;28;20160;-82
2022/04/18 00:44:26;;;;;;;1.90;1.30;;;15.20;1.00;;;;;;5058244;28;20190;-81
2022/04/18 00:46:52;;;;;;;3.50;1.50;;;15.20;1.00;;;;;;5064924;28;20181;-82
2022/04/18 00:49:19;;;;;;;2.73;1.40;;;15.10;1.00;;;;;;5061126;28;20173;-81
2022/04/18 00:51:44;;;;;;;4.43;1.60;;;15.00;1.00;;;;;;5056210;28;20686;-81
2022/04/18 00:54:12;;;;;;;3.07;1.27;;;14.90;1.00;;;;;;5053684;28;20165;-80
2022/04/18 00:56:38;;;;;;;1.70;1.30;;;14.90;1.00;;;;;;5053266;28;20587;-81
2022/04/18 00:59:03;;;;;;;2.80;1.30;;;14.60;1.00;;;;;;5052605;28;20178;-80
2022/04/18 01:01:29;;;;;;;2.50;1.30;;;14.40;1.00;;;;;;5052922;28;20639;-81
2022/04/18 01:03:55;;;;;;;2.27;1.30;;;14.40;1.00;;;;;;5053359;28;20168;-81
2022/04/18 01:06:21;;;;;;;2.60;1.33;;;14.40;1.00;;;;;;5057838;28;20248;-79
2022/04/18 01:08:48;;;;;;;2.33;1.30;;;14.40;1.00;;;;;;5058776;28;20669;-81
2022/04/18 01:11:14;;;;;;;3.07;1.13;;;14.40;1.00;;;;;;5053125;28;20216;-81
2022/04/18 01:13:48;;;;;;;2.10;1.23;;;14.40;1.00;;;;;;5053044;28;20181;-81
2022/04/18 01:16:15;;;;;;;1.77;1.20;;;14.30;1.00;;;;;;5052822;28;20172;-80
2022/04/18 01:18:41;;;;;;;2.40;1.30;;;14.00;1.00;;;;;;5051746;28;20535;-80
2022/04/18 01:21:07;;;;;;;2.93;1.43;;;14.00;1.00;;;;;;5053324;28;20177;-80
2022/04/18 01:23:33;;;;;;;3.63;1.40;;;13.70;1.00;;;;;;5051977;28;20173;-81
2022/04/18 01:28:59;;;;;;;2.30;1.27;;;13.60;1.00;;;;;;5053354;28;20243;-80
2022/04/18 01:31:29;;;;;;;3.93;1.60;;;13.50;1.00;;;;;;5062586;28;20789;-80
2022/04/18 01:33:56;;;;;;;3.40;1.60;;;13.40;1.00;;;;;;5059041;28;20204;-81
2022/04/18 01:36:23;;;;;;;1.67;1.20;;;13.40;1.00;;;;;;5057238;28;20174;-81
2022/04/18 01:38:48;;;;;;;2.00;1.20;;;13.50;1.00;;;;;;5062164;28;20161;-80
2022/04/18 01:41:17;;;;;;;2.07;1.23;;;13.50;1.00;;;;;;5057900;28;20675;-79
2022/04/18 01:43:42;;;;;;;2.43;1.37;;;13.50;1.00;;;;;;5053212;28;20227;-81
2022/04/18 01:46:08;;;;;;;3.07;1.60;;;13.40;1.00;;;;;;5052738;28;20173;-80
2022/04/18 01:48:34;;;;;;;2.90;1.60;;;13.50;1.00;;;;;;5052680;28;20264;-80
2022/04/18 01:50:59;;;;;;;2.57;1.47;;;13.60;1.00;;;;;;5053603;28;20606;-81
2022/04/18 01:53:27;;;;;;;3.43;1.40;;;13.60;1.00;;;;;;5053108;28;20169;-79
2022/04/18 01:55:53;;;;;;;2.80;1.53;;;13.50;1.00;;;;;;5052955;28;20490;-80
2022/04/18 01:58:19;;;;;;;3.97;1.57;;;13.50;1.00;;;;;;5052506;28;20642;-80
2022/04/18 02:00:45;;;;;;;2.70;1.60;;;13.50;1.00;;;;;;5052290;28;20173;-81
2022/04/18 02:03:11;;;;;;;3.37;1.40;;;13.70;1.00;;;;;;5056927;28;20170;-81
2022/04/18 02:05:37;;;;;;;3.53;1.60;;;13.70;1.00;;;;;;5056698;28;20227;-80
2022/04/18 02:08:03;;;;;;;3.30;1.70;;;13.80;1.00;;;;;;5056484;28;20220;-81
2022/04/18 02:10:29;;;;;;;2.73;1.90;;;13.90;1.00;;;;;;5055607;28;20236;-81
2022/04/18 02:12:57;;;;;;;3.23;1.70;;;14.00;1.00;;;;;;5055746;28;20209;-79
2022/04/18 02:15:22;;;;;;;2.97;1.70;;;13.90;1.00;;;;;;5055654;28;20218;-80
2022/04/18 02:17:48;;;;;;;3.50;1.80;;;13.90;1.00;;;;;;5059343;28;20261;-81
2022/04/18 02:20:14;;;;;;;3.13;1.80;;;13.90;1.00;;;;;;5072649;28;20174;-81
2022/04/18 02:22:39;;;;;;;2.23;1.50;;;14.00;1.00;;;;;;5075297;28;20185;-80
2022/04/18 02:25:09;;;;;;;4.10;1.57;;;13.70;1.00;;;;;;5069147;28;20176;-81
2022/04/18 02:27:35;;;;;;;3.73;1.97;;;13.60;1.00;;;;;;5061923;28;20181;-80
2022/04/18 02:30:01;;;;;;;3.60;1.90;;;13.60;1.00;;;;;;5057027;28;20170;-81
2022/04/18 02:35:11;;;;;;;3.17;1.70;;;13.50;1.00;;;;;;5055922;28;20221;-81
2022/04/18 02:37:36;;;;;;;2.80;1.80;;;13.70;1.00;;;;;;5055519;28;20193;-82
2022/04/18 02:40:02;;;;;;;2.80;1.70;;;13.80;1.00;;;;;;5056205;28;20220;-81
2022/04/18 02:42:28;;;;;;;4.37;2.17;;;13.70;1.00;;;;;;5055651;28;20169;-80
2022/04/18 02:44:54;;;;;;;2.10;1.70;;;13.60;1.00;;;;;;5059589;28;20173;-81
2022/04/18 02:47:19;;;;;;;3.17;1.57;;;13.50;1.00;;;;;;5071283;28;20226;-81
2022/04/18 02:49:51;;;;;;;3.27;1.70;;;13.50;1.00;;;;;;5057070;28;20222;-80
2022/04/18 02:52:17;;;;;;;3.43;2.00;;;13.20;1.00;;;;;;5054258;28;20331;-81
2022/04/18 02:54:44;;;;;;;3.60;2.00;;;13.10;1.00;;;;;;5055295;28;20207;-80
2022/04/18 02:57:11;;;;;;;2.30;1.63;;;13.00;1.00;;;;;;5055237;28;20212;-80
2022/04/18 02:59:38;;;;;;;3.23;2.10;;;12.80;1.00;;;;;;5055409;28;20182;-80
2022/04/18 03:02:04;;;;;;;2.37;1.60;;;12.70;6.50;;;;;;5055366;28;20177;-81
2022/04/18 03:04:29;;;;;;;3.47;2.03;;;12.70;29.40;;;;;;5055108;28;20170;-81
2022/04/18 03:06:55;;;;;;;4.50;1.60;;;12.90;46.50;;;;;;5055295;28;20177;-80
2022/04/18 03:09:21;;;;;;;3.43;2.10;;;12.90;45.50;;;;;;5056101;28;20586;-81
2022/04/18 03:11:46;;;;;;;3.27;2.07;;;13.10;10.40;;;;;;5068337;28;20228;-81
2022/04/18 03:14:12;;;;;;;4.43;1.80;;;13.20;1.00;;;;;;5064077;28;20637;-80
2022/04/18 03:16:39;;;;;;;4.13;2.17;;;13.10;1.00;;;;;;5054636;28;20178;-81
2022/04/18 03:19:04;;;;;;;3.57;2.13;;;13.00;15.20;;;;;;5055128;28;20169;-81
2022/04/18 03:21:30;;;;;;;4.37;2.03;;;12.90;3.90;;;;;;5054986;28;20175;-81
2022/04/18 03:23:56;;;;;;;5.20;1.70;;;13.00;1.00;;;;;;5064797;28;20168;-79
2022/04/18 03:26:21;;;;;;;3.47;1.87;;;13.10;1.00;;;;;;5070162;28;20560;-80
2022/04/18 03:28:50;;;;;;;2.87;1.83;;;13.10;1.00;;;;;;5055832;28;20697;-80
2022/04/18 03:31:16;;;;;;;5.03;2.27;;;13.30;1.00;;;;;;5053369;28;20251;-80
2022/04/18 03:33:42;;;;;;;2.93;1.77;;;13.30;1.00;;;;;;5054465;28;20781;-80
2022/04/18 03:41:36;;;;;;;2.07;1.40;;;13.10;1.00;;;;;;5054139;28;20598;-81
2022/04/18 03:44:02;;;;;;;3.90;1.50;;;13.20;1.00;;;;;;5054449;28;20256;-81
2022/04/18 03:46:28;;;;;;;4.33;1.90;;;13.10;1.00;;;;;;5054357;28;20590;-80
2022/04/18 03:48:54;;;;;;;2.73;1.50;;;13.40;1.00;;;;;;5055754;28;20178;-80
2022/04/18 03:51:19;;;;;;;3.00;1.40;;;13.20;1.00;;;;;;5054609;28;20196;-81
2022/04/18 03:53:45;;;;;;;2.77;1.53;;;13.20;1.00;;;;;;5054183;28;20170;-81
2022/04/18 03:56:11;;;;;;;2.03;1.50;;;13.30;1.00;;;;;;5053685;28;20604;-80
2022/04/18 03:58:36;;;;;;;3.00;1.70;;;13.20;1.00;;;;;;5053184;28;20265;-80
2022/04/18 04:01:02;;;;;;;2.17;1.30;;;13.20;1.00;;;;;;5054484;28;20508;-79
2022/04/18 04:03:27;;;;;;;3.13;1.40;;;13.40;1.00;;;;;;5075108;28;20168;-80
2022/04/18 04:06:11;;;;;;;2.43;1.43;;;13.30;1.00;;;;;;5059379;28;20623;-81
2022/04/18 04:08:37;;;;;;;3.10;1.63;;;13.40;1.00;;;;;;5066190;28;20337;-80
2022/04/18 04:11:03;;;;;;;2.30;1.60;;;13.30;1.00;;;;;;5068685;28;20216;-80
2022/04/18 04:13:28;;;;;;;4.07;1.70;;;13.40;1.00;;;;;;5060592;28;20189;-80
2022/04/18 04:16:00;;;;;;;3.40;1.80;;;13.30;1.00;;;;;;5055370;28;20207;-80
2022/04/18 04:18:27;;;;;;;4.03;1.37;;;13.40;1.00;;;;;;5054643;28;20180;-80
2022/04/18 04:20:52;;;;;;;3.43;1.57;;;13.40;1.00;;;;;;5054535;28;20550;-80
2022/04/18 04:23:18;;;;;;;1.93;1.40;;;13.40;1.00;;;;;;5054867;28;20207;-81
2022/04/18 04:25:43;;;;;;;4.50;1.80;;;13.40;1.00;;;;;;5056510;28;20606;-80
2022/04/18 04:28:11;;;;;;;2.50;1.67;;;13.20;1.00;;;;;;5063511;28;20165;-78
2022/04/18 04:30:36;;;;;;;2.20;1.63;;;13.10;1.00;;;;;;5072341;28;20149;-78
2022/04/18 04:33:02;;;;;;;4.67;1.77;;;13.10;1.00;;;;;;5073571;28;20204;-79
2022/04/18 04:35:28;;;;;;;3.53;1.50;;;13.10;1.00;;;;;;5061360;28;20173;-80
2022/04/18 04:37:54;;;;;;;3.10;1.87;;;13.10;1.00;;;;;;5055562;28;20177;-80
2022/04/18 04:40:21;;;;;;;3.60;2.00;;;13.20;1.00;;;;;;5053621;28;20173;-80
2022/04/18 04:42:46;;;;;;;4.57;2.10;;;13.20;1.00;;;;;;5053987;28;20169;-81
2022/04/18 04:45:13;;;;;;;3.70;1.90;;;13.10;1.00;;;;;;5052921;28;20173;-79
2022/04/18 04:47:39;;;;;;;2.80;1.70;;;12.90;1.00;;;;;;5053367;28;20177;-81
2022/04/18 04:50:05;;;;;;;3.23;1.90;;;12.90;1.00;;;;;;5053910;28;20184;-81
2022/04/18 04:52:31;;;;;;;3.40;2.13;;;12.90;1.00;;;;;;5054089;28;20218;-80
2022/04/18 04:54:57;;;;;;;2.47;1.70;;;12.90;1.00;;;;;;5055101;28;20207;-80
2022/04/18 04:57:22;;;;;;;4.93;1.87;;;13.00;1.00;;;;;;5055228;28;20208;-80
2022/04/18 04:59:48;;;;;;;4.33;1.70;;;13.10;1.00;;;;;;5056195;28;20165;-81
2022/04/18 05:02:13;;;;;;;2.37;1.60;;;13.10;1.00;;;;;;5070578;28;20171;-80
2022/04/18 05:04:39;;;;;;;2.97;1.67;;;13.10;1.00;;;;;;5060728;28;20172;-82
2022/04/18 05:07:05;;;;;;;3.23;1.77;;;13.00;1.00;;;;;;5055082;28;20176;-80
2022/04/18 05:09:30;;;;;;;2.93;1.77;;;13.00;5.20;;;;;;5054204;28;20625;-80
2022/04/18 05:11:56;;;;;;;4.17;1.77;;;12.90;27.00;;;;;;5057809;28;20239;-79
2022/04/18 05:14:21;;;;;;;2.30;1.40;;;13.00;21.10;;;;;;5065025;28;20169;-80
2022/04/18 05:16:47;;;;;;;4.87;1.83;;;13.00;15.60;;;;;;5074024;28;20225;-80
2022/04/18 05:19:16;;;;;;;5.13;2.63;;;12.90;14.30;;;;;;5056662;28;20170;-81
2022/04/18 05:21:41;;;;;;;2.60;1.90;;;13.10;8.70;;;;;;5054534;28;20209;-79
2022/04/18 05:24:07;;;;;;;5.03;2.10;;;13.20;1.00;;;;;;5069028;28;20610;-80
2022/04/18 05:26:33;;;;;;;2.70;1.70;;;13.30;1.00;;;;;;5054169;28;20176;-81
2022/04/18 05:28:58;;;;;;;2.87;2.00;;;13.40;1.00;;;;;;5052822;28;20173;-81
2022/04/18 05:31:24;;;;;;;5.03;2.00;;;13.50;1.00;;;;;;5053196;28;20537;-79
2022/04/18 05:33:50;;;;;;;3.20;1.83;;;13.60;1.00;;;;;;5053239;28;20200;-80
2022/04/18 05:36:15;;;;;;;4.37;1.70;;;13.60;1.00;;;;;;5054202;28;20539;-80
2022/04/18 05:38:41;;;;;;;4.30;1.83;;;13.60;1.00;;;;;;5056790;28;20540;-80
2022/04/18 05:41:07;;;;;;;3.53;1.73;;;13.50;1.00;;;;;;5057190;28;20216;-80
2022/04/18 05:43:32;;;;;;;4.27;1.80;;;13.40;1.00;;;;;;5057248;28;20657;-80
2022/04/18 05:45:58;;;;;;;5.47;1.77;;;13.30;1.00;;;;;;5056785;28;20204;-82
2022/04/18 05:48:24;;;;;;;2.83;1.80;;;13.40;1.00;;;;;;5056759;28;20174;-81
2022/04/18 05:50:49;;;;;;;3.80;1.67;;;13.60;1.00;;;;;;5056402;28;20271;-82
2022/04/18 05:53:16;;;;;;;3.33;1.90;;;13.60;1.00;;;;;;5056836;28;20578;-78
2022/04/18 05:55:42;;;;;;;3.43;1.70;;;13.70;1.00;;;;;;5056796;28;20167;-80
2022/04/18 05:58:08;;;;;;;3.50;1.60;;;13.80;1.00;;;;;;5056446;28;20680;-82
2022/04/18 06:00:34;;;;;;;9.97;4.43;;;13.80;1.00;;;;;;5056766;28;20586;-81
2022/04/18 06:03:01;;;;;;;17.80;6.13;;;13.80;1.00;;;;;;5056732;28;20177;-80
2022/04/18 06:05:27;;;;;;;10.97;5.57;;;13.70;1.00;;;;;;5055547;28;20547;-81
2022/04/18 06:07:53;;;;;;;7.90;3.40;;;13.60;1.00;;;;;;5056217;28;20187;-79
2022/04/18 06:10:19;;;;;;;5.80;1.87;;;13.60;1.00;;;;;;5064844;28;20666;-80
2022/04/18 06:12:44;;;;;;;6.40;2.03;;;13.60;1.00;;;;;;5062436;28;20220;-80
2022/04/18 06:15:10;;;;;;;5.57;1.80;;;13.70;1.00;;;;;;5059674;28;20538;-80
2022/04/18 06:17:36;;;;;;;5.80;1.90;;;13.90;1.00;;;;;;5058671;28;20161;-80
2022/04/18 06:20:04;;;;;;;4.27;1.60;;;14.10;1.00;;;;;;5056121;28;20539;-80
2022/04/18 06:22:30;;;;;;;6.07;1.53;;;14.10;1.00;;;;;;5054746;28;20646;-80
2022/04/18 06:24:57;;;;;;;3.83;1.67;;;14.10;1.00;;;;;;5056096;28;20233;-80
2022/04/18 06:27:22;;;;;;;3.23;1.60;;;14.10;1.00;;;;;;5056073;28;20218;-80
2022/04/18 06:29:48;;;;;;;3.57;1.70;;;14.20;1.00;;;;;;5056114;28;20245;-80
2022/04/18 06:32:14;;;;;;;6.10;1.87;;;14.30;1.00;;;;;;5056115;28;20699;-79
2022/04/18 06:34:39;;;;;;;5.17;1.77;;;14.50;1.00;;;;;;5055348;28;20170;-80
2022/04/18 06:37:05;;;;;;;3.23;1.90;;;14.50;1.00;;;;;;5056186;28;20534;-79
2022/04/18 06:39:31;;;;;;;4.87;1.80;;;14.60;1.00;;;;;;5055889;28;20169;-81
2022/04/18 06:41:57;;;;;;;7.43;2.00;;;14.80;1.00;;;;;;5056351;28;20643;-80
2022/04/18 06:44:24;;;;;;;3.50;1.87;;;14.80;1.00;;;;;;5071289;28;20174;-81
2022/04/18 06:46:51;;;;;;;3.40;2.17;;;14.80;1.00;;;;;;5058039;28;20164;-81
2022/04/18 06:49:16;;;;;;;3.10;1.57;;;14.70;1.00;;;;;;5060336;28;20163;-80
2022/04/18 06:51:42;;;;;;;3.87;1.80;;;14.80;1.00;;;;;;5069608;28;20307;-81
2022/04/18 06:54:07;;;;;;;4.47;2.10;;;14.90;1.00;;;;;;5072933;28;20176;-80
2022/04/18 06:59:17;;;;;;;4.23;2.00;;;14.90;1.00;;;;;;5068923;28;20643;-79
2022/04/18 07:01:49;;;;;;;4.53;2.77;;;15.00;1.00;;;;;;5060618;28;20260;-80
2022/04/18 07:04:15;;;;;;;4.20;2.10;;;15.30;1.00;;;;;;5064332;28;20169;-80
2022/04/18 07:06:41;;;;;;;3.83;1.80;;;15.50;1.00;;;;;;5064837;28;20161;-80
2022/04/18 07:09:06;;;;;;;3.00;1.80;;;15.60;1.00;;;;;;5065550;28;20167;-80
2022/04/18 07:11:33;;;;;;;3.97;2.57;;;15.90;1.00;;;;;;5057228;28;20216;-80
2022/04/18 07:13:59;;;;;;;2.93;1.70;;;15.80;1.00;;;;;;5056754;28;20165;-80
2022/04/18 07:16:24;;;;;;;4.17;1.50;;;15.80;1.00;;;;;;5055166;28;20259;-81
2022/04/18 07:18:50;;;;;;;5.27;1.67;;;15.90;1.00;;;;;;5055461;28;20165;-80
2022/04/18 07:21:16;;;;;;;2.90;1.70;;;15.90;1.00;;;;;;5054136;28;20177;-79
2022/04/18 07:23:42;;;;;;;3.00;1.70;;;16.00;1.00;;;;;;5055472;28;20179;-80
2022/04/18 07:26:08;;;;;;;4.53;1.53;;;16.10;1.00;;;;;;5054990;28;20508;-80
2022/04/18 07:28:38;;;;;;;3.47;2.07;;;16.00;1.00;;;;;;5055430;28;20184;-81
2022/04/18 07:31:05;;;;;;;2.63;1.50;;;15.80;1.00;;;;;;5054661;28;20672;-80
2022/04/18 07:33:31;;;;;;;3.33;1.77;;;15.60;1.00;;;;;;5054658;28;20181;-81
2022/04/18 07:35:57;;;;;;;3.10;1.60;;;15.40;1.00;;;;;;5056279;28;20171;-80
2022/04/18 07:41:07;;;;;;;3.40;1.70;;;15.40;1.00;;;;;;5056100;28;20179;-80
2022/04/18 07:43:37;;;;;;;3.10;1.47;;;15.50;1.00;;;;;;5057375;28;20177;-79
2022/04/18 07:46:03;;;;;;;2.93;1.60;;;15.40;1.00;;;;;;5054501;28;20256;-81
2022/04/18 07:48:32;;;;;;;4.60;1.63;;;15.40;1.00;;;;;;5056031;28;20274;-82
2022/04/18 07:53:42;;;;;;;2.13;1.60;;;15.50;1.00;;;;;;5058489;28;20199;-80
2022/04/18 07:56:08;;;;;;;2.83;1.67;;;15.50;1.00;;;;;;5056893;28;20260;-80
2022/04/18 07:58:34;;;;;;;3.70;1.77;;;15.50;1.00;;;;;;5067395;28;20201;-81
2022/04/18 08:01:01;;;;;;;3.90;1.80;;;15.50;1.00;;;;;;5055556;28;20250;-81
2022/04/18 08:03:26;;;;;;;4.27;1.83;;;15.50;1.00;;;;;;5054549;28;20252;-81
2022/04/18 08:05:56;;;;;;;4.47;1.90;;;15.60;1.00;;;;;;5054940;28;20214;-82
2022/04/18 08:08:22;;;;;;;4.53;1.80;;;15.70;1.00;;;;;;5054042;28;20173;-82
2022/04/18 08:10:49;;;;;;;2.80;1.70;;;15.60;1.00;;;;;;5054865;28;20561;-82
2022/04/18 08:13:14;;;;;;;3.10;1.73;;;15.60;1.00;;;;;;5055556;28;20237;-80
2022/04/18 08:15:40;;;;;;;4.77;1.80;;;15.60;1.00;;;;;;5053473;28;20208;-82
2022/04/18 08:18:06;;;;;;;3.70;2.07;;;15.70;1.00;;;;;;5055333;28;20180;-82
2022/04/18 08:20:32;;;;;;;3.47;2.27;;;16.00;1.00;;;;;;5055009;28;20714;-82
2022/04/18 08:22:57;;;;;;;4.77;2.20;;;15.90;1.00;;;;;;5053538;28;20179;-81
2022/04/18 08:25:23;;;;;;;2.67;1.80;;;16.10;1.00;;;;;;5053718;28;20181;-80
2022/04/18 08:27:49;;;;;;;2.73;1.93;;;16.10;1.00;;;;;;5053739;28;20182;-79
2022/04/18 08:30:14;;;;;;;4.20;2.00;;;16.30;1.00;;;;;;5055003;28;20176;-81
2022/04/18 08:32:41;;;;;;;3.57;2.00;;;16.30;1.00;;;;;;5054630;28;20313;-80
2022/04/18 08:35:08;;;;;;;3.97;2.40;;;16.30;1.00;;;;;;5054775;28;20173;-80
2022/04/18 08:37:37;;;;;;;3.90;2.17;;;16.30;1.00;;;;;;5054719;28;20192;-80
2022/04/18 08:40:10;;;;;;;2.77;1.83;;;16.40;1.00;;;;;;5061290;28;20165;-83
2022/04/18 08:42:38;;;;;;;3.97;2.37;;;16.20;1.00;;;;;;5054978;28;20188;-82
2022/04/18 08:45:09;;;;;;;4.80;1.80;;;16.30;1.00;;;;;;5054048;28;20641;-82
2022/04/18 08:53:16;;;;;;;4.80;2.40;;;16.40;1.00;;;;;;5058231;28;20235;-81
2022/04/18 08:55:42;;;;;;;3.33;1.80;;;16.50;1.00;;;;;;5056436;28;20205;-80
2022/04/18 08:58:12;;;;;;;4.00;2.00;;;16.60;1.00;;;;;;5060612;28;20196;-80
2022/04/18 09:00:39;;;;;;;4.27;1.90;;;16.80;1.00;;;;;;5069458;28;20199;-81
2022/04/18 09:03:04;;;;;;;3.37;1.83;;;17.10;1.00;;;;;;5071357;28;20181;-81
2022/04/18 09:05:37;;;;;;;4.23;1.80;;;17.30;1.00;;;;;;5064891;28;20200;-81
2022/04/18 09:08:09;;;;;;;3.57;1.80;;;17.20;1.00;;;;;;5058918;28;20164;-83
2022/04/18 09:10:36;;;;;;;3.70;1.80;;;17.30;1.00;;;;;;5065193;28;20183;-80
2022/04/18 09:13:11;;;;;;;3.83;1.73;;;17.50;1.00;;;;;;5067901;28;20210;-81
2022/04/18 09:15:41;;;;;;;5.20;1.77;;;17.50;1.00;;;;;;5061501;28;20176;-79
2022/04/18 09:18:08;;;;;;;2.70;1.70;;;17.40;1.00;;;;;;5061683;28;20260;-79
2022/04/18 09:21:04;;;;;;;2.87;1.70;;;17.50;1.00;;;;;;5058251;28;20177;-81
2022/04/18 09:23:31;;;;;;;4.23;2.00;;;17.60;1.00;;;;;;5059981;28;20189;-79
2022/04/18 09:25:59;;;;;;;3.67;1.80;;;17.80;1.00;;;;;;5060982;28;20264;-81
2022/04/18 09:28:30;;;;;;;5.13;1.90;;;18.10;1.00;;;;;;5057330;28;20184;-81
2022/04/18 09:31:19;;;;;;;3.87;1.80;;;18.00;1.00;;;;;;5061051;28;20219;-81
2022/04/18 09:33:54;;;;;;;4.67;2.10;;;18.20;1.00;;;;;;5066102;28;20173;-81
2022/04/18 09:36:23;;;;;;;4.47;1.83;;;18.20;1.00;;;;;;5059299;28;20266;-83
2022/04/18 09:38:56;;;;;;;3.90;1.80;;;18.10;1.00;;;;;;5061808;28;20184;-82
2022/04/18 09:41:26;;;;;;;3.87;2.00;;;18.30;1.00;;;;;;5065489;28;20176;-81
2022/04/18 09:43:53;;;;;;;3.33;2.00;;;18.30;1.00;;;;;;5059312;28;20157;-81
2022/04/18 09:46:19;;;;;;;4.33;2.47;;;18.50;1.00;;;;;;5058007;28;20178;-81
2022/04/18 09:48:47;;;;;;;3.17;1.97;;;18.50;1.00;;;;;;5060158;28;20169;-83
2022/04/18 09:51:22;;;;;;;2.73;2.00;;;18.60;1.00;;;;;;5059925;28;20575;-81
2022/04/18 09:53:52;;;;;;;3.43;1.70;;;18.70;1.00;;;;;;5065946;28;20233;-81
2022/04/18 09:56:19;;;;;;;3.67;1.80;;;19.00;1.00;;;;;;5074309;28;20186;-80
2022/04/18 09:58:48;;;;;;;2.60;1.80;;;19.30;1.00;;;;;;5076237;28;20143;-80
2022/04/18 10:01:16;;;;;;;3.13;2.17;;;19.30;1.00;;;;;;5071772;28;20348;-80
2022/04/18 10:03:52;;;;;;;4.57;1.80;;;19.50;1.00;;;;;;5064450;28;20178;-81
2022/04/18 10:06:22;;;;;;;3.03;1.67;;;19.60;1.00;;;;;;5062086;28;20193;-81
2022/04/18 10:08:50;;;;;;;2.37;1.43;;;19.90;1.00;;;;;;5062858;28;20661;-80
2022/04/18 10:11:17;;;;;;;2.60;1.90;;;19.80;1.00;;;;;;5049911;28;20253;-80
2022/04/18 10:13:46;;;;;;;4.17;1.70;;;19.70;1.00;;;;;;5064558;28;20239;-81
2022/04/18 10:16:14;;;;;;;2.90;1.70;;;19.70;1.00;;;;;;5062756;28;20210;-81
2022/04/18 10:18:50;;;;;;;4.07;1.50;;;19.80;1.00;;;;;;5059951;28;20179;-81
2022/04/18 10:21:30;;;;;;;2.80;1.70;;;19.80;1.00;;;;;;5060589;28;20250;-80
2022/04/18 10:24:22;;;;;;;2.70;1.80;;;19.80;1.00;;;;;;5061576;28;20182;-79
2022/04/18 10:27:45;;;;;;;2.03;1.30;;;19.70;1.00;;;;;;5070525;28;20205;-80
2022/04/18 10:30:14;;;;;;;3.57;1.40;;;19.20;1.00;;;;;;5037179;28;20179;-83
2022/04/18 10:32:43;;;;;;;3.30;1.80;;;18.90;1.00;;;;;;5023850;28;20211;-82
2022/04/18 10:35:13;;;;;;;3.00;1.87;;;19.20;1.00;;;;;;5045252;28;20181;-80
2022/04/18 10:37:44;;;;;;;3.27;1.70;;;19.40;1.00;;;;;;5063444;28;20167;-80
2022/04/18 10:40:11;;;;;;;6.33;4.00;;;19.70;1.00;;;;;;5059001;28;20221;-80
2022/04/18 10:42:38;;;;;;;2.47;1.60;;;19.60;1.00;;;;;;5060277;28;20164;-81
2022/04/18 10:45:08;;;;;;;4.67;1.97;;;19.50;1.00;;;;;;5062436;28;20675;-79
2022/04/18 10:47:57;;;;;;;3.57;1.63;;;19.60;1.00;;;;;;5064516;28;20167;-79
2022/04/18 10:50:38;;;;;;;3.77;1.90;;;19.70;1.00;;;;;;5058354;28;20180;-81
2022/04/18 10:53:11;;;;;;;4.57;1.80;;;19.50;1.00;;;;;;5058379;28;20653;-80
2022/04/18 10:55:39;;;;;;;2.53;1.60;;;19.30;1.00;;;;;;5058915;28;20180;-79
2022/04/18 10:58:17;;;;;;;4.23;1.70;;;19.40;1.00;;;;;;5061492;28;20189;-80
2022/04/18 11:00:52;;;;;;;2.30;1.53;;;19.50;1.00;;;;;;5061887;28;20175;-80
2022/04/18 11:03:48;;;;;;;2.77;1.60;;;19.60;1.00;;;;;;5069466;28;20174;-81
2022/04/18 11:06:17;;;;;;;2.43;1.43;;;19.80;1.00;;;;;;5062238;28;20173;-81
2022/04/18 11:09:06;;;;;;;3.93;1.63;;;19.90;1.00;;;;;;5061794;28;20164;-81
2022/04/18 11:11:43;;;;;;;4.13;1.50;;;20.00;1.00;;;;;;5065097;28;20211;-80
2022/04/18 11:14:29;;;;;;;2.93;1.70;;;20.30;1.00;;;;;;5071365;28;20243;-81
2022/04/18 11:17:06;;;;;;;1.87;1.27;;;20.40;1.00;;;;;;5073390;28;20217;-79
2022/04/18 11:19:40;;;;;;;2.17;1.53;;;20.60;1.00;;;;;;5064648;28;20210;-81
2022/04/18 11:22:25;;;;;;;1.67;1.30;;;20.70;1.00;;;;;;5061693;28;20184;-79
2022/04/18 11:24:56;;;;;;;2.57;1.60;;;20.80;1.00;;;;;;5060184;28;20622;-81
2022/04/18 11:27:28;;;;;;;2.53;1.43;;;20.80;1.00;;;;;;5062728;28;20163;-81
2022/04/18 11:30:00;;;;;;;6.47;1.27;;;20.50;1.00;;;;;;5057810;28;20695;-81
2022/04/18 11:32:33;;;;;;;2.53;1.50;;;20.00;1.00;;;;;;5056103;28;20235;-81
2022/04/18 11:35:01;;;;;;;2.60;1.60;;;19.70;1.00;;;;;;5059525;28;20282;-81
2022/04/18 11:37:33;;;;;;;3.23;1.57;;;19.70;1.00;;;;;;5058440;28;20181;-82
2022/04/18 11:40:10;;;;;;;2.37;1.47;;;19.50;1.00;;;;;;5059829;28;20525;-82
2022/04/18 11:42:37;;;;;;;2.13;1.30;;;19.50;1.00;;;;;;5067851;28;20174;-81
2022/04/18 11:45:07;;;;;;;3.53;1.47;;;19.80;1.00;;;;;;5060978;28;20179;-80
2022/04/18 11:47:44;;;;;;;3.03;1.57;;;20.10;1.00;;;;;;5057754;28;20252;-80
2022/04/18 11:50:11;;;;;;;3.40;1.70;;;20.00;1.00;;;;;;5056824;28;20150;-81
2022/04/18 11:52:40;;;;;;;2.73;1.57;;;19.90;1.00;;;;;;5055435;28;20687;-80
2022/04/18 11:55:13;;;;;;;1.70;1.30;;;20.20;1.00;;;;;;5055185;28;20167;-82
2022/04/18 11:57:41;;;;;;;3.07;1.40;;;20.50;1.00;;;;;;5056115;28;20182;-83
2022/04/18 12:08:34;;;;;;;1.90;1.50;;;20.70;1.00;;;;;;5056362;28;20176;-81
2022/04/18 12:11:00;;;;;;;2.47;1.40;;;20.60;1.00;;;;;;5054209;28;20204;-80
2022/04/18 12:13:26;;;;;;;2.90;1.37;;;20.30;1.00;;;;;;5054126;28;20307;-81
2022/04/18 12:15:52;;;;;;;3.33;1.40;;;20.20;1.00;;;;;;5067707;28;20175;-82
2022/04/18 12:18:19;;;;;;;5.13;3.00;;;20.10;1.00;;;;;;5059675;28;20179;-81
2022/04/18 12:20:47;;;;;;;2.67;1.60;;;20.10;1.00;;;;;;5058252;28;20168;-79
2022/04/18 12:23:17;;;;;;;3.20;1.43;;;20.40;1.00;;;;;;5061101;28;20167;-80
2022/04/18 12:25:45;;;;;;;2.10;1.57;;;20.60;1.00;;;;;;5060547;28;20577;-80
2022/04/18 12:28:11;;;;;;;3.40;1.70;;;20.80;1.00;;;;;;5062550;28;20230;-82
2022/04/18 12:30:37;;;;;;;2.90;1.73;;;20.70;1.00;;;;;;5068279;28;20169;-80
2022/04/18 12:33:19;;;;;;;2.47;1.40;;;21.10;1.00;;;;;;5063804;28;20236;-80
2022/04/18 12:35:48;;;;;;;3.67;1.80;;;21.40;1.00;;;;;;5065059;28;20165;-81
2022/04/18 12:38:15;;;;;;;2.80;1.57;;;21.70;1.00;;;;;;5060232;28;20199;-80
2022/04/18 12:40:45;;;;;;;1.77;1.30;;;21.70;1.00;;;;;;5063582;28;20223;-80
2022/04/18 12:43:13;;;;;;;2.93;1.80;;;21.60;1.00;;;;;;5060204;28;20174;-81
2022/04/18 12:45:52;;;;;;;2.43;1.40;;;21.70;1.00;;;;;;5061317;28;20176;-80
2022/04/18 12:48:30;;;;;;;2.13;1.30;;;21.30;1.00;;;;;;5059819;28;20168;-82
2022/04/18 12:50:58;;;;;;;2.93;1.40;;;21.20;1.00;;;;;;5055616;28;20181;-81
2022/04/18 12:53:50;;;;;;;5.00;1.70;;;21.00;1.00;;;;;;5059231;28;20169;-81
2022/04/18 12:56:21;;;;;;;2.20;1.50;;;20.80;1.00;;;;;;5058852;28;20188;-81
2022/04/18 12:58:49;;;;;;;4.57;1.30;;;20.80;1.00;;;;;;5068587;28;20180;-80
2022/04/18 13:01:22;;;;;;;1.93;1.27;;;20.60;1.00;;;;;;5071286;28;20169;-82
2022/04/18 13:03:49;;;;;;;2.33;1.50;;;20.50;1.00;;;;;;5065822;28;20164;-82
2022/04/18 13:06:25;;;;;;;3.87;1.93;;;20.60;1.00;;;;;;5066318;28;20195;-81
2022/04/18 13:09:12;;;;;;;3.70;1.50;;;21.00;1.00;;;;;;5062427;28;20673;-81
2022/04/18 13:11:45;;;;;;;4.57;1.63;;;21.00;1.00;;;;;;5056364;28;20579;-80
2022/04/18 13:14:13;;;;;;;2.80;1.40;;;21.20;1.00;;;;;;5063709;28;20173;-80
2022/04/18 13:16:42;;;;;;;3.07;1.40;;;21.40;1.00;;;;;;5070668;28;20173;-80
2022/04/18 13:19:14;;;;;;;4.43;1.50;;;21.70;1.00;;;;;;5069380;28;20185;-81
2022/04/18 13:21:43;;;;;;;2.80;1.50;;;21.90;1.00;;;;;;5069237;28;20171;-82
2022/04/18 13:24:10;;;;;;;3.40;1.70;;;21.90;1.00;;;;;;5064067;28;20165;-80
2022/04/18 13:26:37;;;;;;;2.70;1.70;;;22.10;1.00;;;;;;5067594;28;20169;-81
2022/04/18 13:29:05;;;;;;;2.80;1.57;;;22.00;1.00;;;;;;5068713;28;20149;-82
2022/04/18 13:31:31;;;;;;;3.07;1.70;;;22.30;1.00;;;;;;5070024;28;20197;-82
2022/04/18 13:33:57;;;;;;;2.50;1.70;;;22.40;1.00;;;;;;5070365;28;20161;-80
2022/04/18 13:36:38;;;;;;;3.20;1.60;;;22.40;1.00;;;;;;5061550;28;20210;-81